createdAt,value
2018-09-28T00:01:23.370Z,16.20
2018-09-28T00:03:58.379Z,16.20
2018-09-28T00:06:32.702Z,16.20
2018-09-28T00:09:09.243Z,16.20
2018-09-28T00:11:43.583Z,16.00
2018-09-28T00:14:18.786Z,16.00
2018-09-28T00:16:53.189Z,16.00
2018-09-28T00:19:28.214Z,16.00
2018-09-28T00:22:02.680Z,16.00
2018-09-28T00:24:37.654Z,15.90
2018-09-28T00:27:11.976Z,15.90
2018-09-28T00:29:47.056Z,15.80
2018-09-28T00:32:22.455Z,15.80
2018-09-28T00:34:56.849Z,15.60
2018-09-28T00:37:31.501Z,15.60
2018-09-28T00:40:06.768Z,15.60
2018-09-28T00:42:41.972Z,15.60
2018-09-28T00:45:17.151Z,15.60
2018-09-28T00:47:51.463Z,15.50
2018-09-28T00:50:26.392Z,15.50
2018-09-28T00:53:02.130Z,15.50
2018-09-28T00:55:36.620Z,15.50
2018-09-28T00:58:11.523Z,15.40
2018-09-28T01:03:26.687Z,15.30
2018-09-28T01:06:01.127Z,15.30
2018-09-28T01:08:35.567Z,15.30
2018-09-28T01:11:09.851Z,15.30
2018-09-28T01:13:44.734Z,15.30
2018-09-28T01:16:19.109Z,15.30
2018-09-28T01:18:53.539Z,15.30
2018-09-28T01:21:35.802Z,15.30
2018-09-28T01:24:10.660Z,15.30
2018-09-28T01:26:45.003Z,15.20
2018-09-28T01:29:19.931Z,15.20
2018-09-28T01:31:54.767Z,15.20
2018-09-28T01:34:29.392Z,15.10
2018-09-28T01:37:03.906Z,15.10
2018-09-28T01:39:39.227Z,15.00
2018-09-28T01:42:14.772Z,15.00
2018-09-28T01:44:50.211Z,15.00
2018-09-28T01:47:25.784Z,15.00
2018-09-28T01:50:01.317Z,15.00
2018-09-28T01:52:42.211Z,15.00
2018-09-28T01:55:16.555Z,15.00
2018-09-28T01:57:52.069Z,15.20
2018-09-28T02:00:26.372Z,14.90
2018-09-28T02:03:01.824Z,14.90
2018-09-28T02:05:36.350Z,14.90
2018-09-28T02:08:10.712Z,14.90
2018-09-28T02:10:45.103Z,14.90
2018-09-28T02:13:20.482Z,14.80
2018-09-28T02:15:55.113Z,14.80
2018-09-28T02:18:30.303Z,14.80
2018-09-28T02:21:05.435Z,14.80
2018-09-28T02:23:39.828Z,14.80
2018-09-28T02:26:14.408Z,14.80
2018-09-28T02:28:49.640Z,14.70
2018-09-28T02:31:25.056Z,14.70
2018-09-28T02:34:00.473Z,14.70
2018-09-28T02:39:16.384Z,14.50
2018-09-28T02:41:50.836Z,14.50
2018-09-28T02:44:26.195Z,14.50
2018-09-28T02:47:00.719Z,14.50
2018-09-28T02:49:35.940Z,14.60
2018-09-28T02:52:10.610Z,14.60
2018-09-28T02:54:46.001Z,14.60
2018-09-28T02:57:21.399Z,14.60
2018-09-28T02:59:55.952Z,14.60
2018-09-28T03:02:31.319Z,14.50
2018-09-28T03:05:05.771Z,14.50
2018-09-28T03:07:40.184Z,14.50
2018-09-28T03:10:15.504Z,14.50
2018-09-28T03:12:51.159Z,14.50
2018-09-28T03:15:25.692Z,14.50
2018-09-28T03:18:01.224Z,14.50
2018-09-28T03:20:35.758Z,14.40
2018-09-28T03:23:10.673Z,14.40
2018-09-28T03:25:45.424Z,14.30
2018-09-28T03:28:21.164Z,14.30
2018-09-28T03:30:56.727Z,14.30
2018-09-28T03:33:32.143Z,14.30
2018-09-28T03:36:07.213Z,14.20
2018-09-28T03:38:42.988Z,14.20
2018-09-28T03:41:17.472Z,14.20
2018-09-28T03:43:52.371Z,14.30
2018-09-28T03:46:27.281Z,14.30
2018-09-28T03:49:02.779Z,14.20
2018-09-28T03:51:37.090Z,14.10
2018-09-28T03:54:12.758Z,14.20
2018-09-28T03:56:47.292Z,14.20
2018-09-28T03:59:22.407Z,14.20
2018-09-28T04:01:57.860Z,14.20
2018-09-28T04:04:32.263Z,14.20
2018-09-28T04:07:06.807Z,14.20
2018-09-28T04:09:41.126Z,14.10
2018-09-28T04:12:16.609Z,14.10
2018-09-28T04:14:50.948Z,14.10
2018-09-28T04:17:25.568Z,14.10
2018-09-28T04:20:00.708Z,14.10
2018-09-28T04:22:35.224Z,14.00
2018-09-28T04:25:09.547Z,14.00
2018-09-28T04:27:43.894Z,13.90
2018-09-28T04:33:05.359Z,14.10
2018-09-28T04:35:39.917Z,14.10
2018-09-28T04:38:14.286Z,14.10
2018-09-28T04:40:49.542Z,14.00
2018-09-28T04:43:24.579Z,14.00
2018-09-28T04:45:59.596Z,13.90
2018-09-28T04:48:40.072Z,13.90
2018-09-28T04:51:14.526Z,13.90
2018-09-28T04:53:49.766Z,13.90
2018-09-28T04:56:24.109Z,13.90
2018-09-28T04:58:59.226Z,13.90
2018-09-28T05:01:34.176Z,13.80
2018-09-28T05:04:08.561Z,13.80
2018-09-28T05:06:43.044Z,13.90
2018-09-28T05:09:17.465Z,13.90
2018-09-28T05:11:52.437Z,13.90
2018-09-28T05:14:27.498Z,13.90
2018-09-28T05:17:02.071Z,13.80
2018-09-28T05:19:37.154Z,13.80
2018-09-28T05:22:11.678Z,13.90
2018-09-28T05:24:45.966Z,13.80
2018-09-28T05:27:20.926Z,13.80
2018-09-28T05:29:56.335Z,13.80
2018-09-28T05:32:31.768Z,13.80
2018-09-28T05:35:06.145Z,13.70
2018-09-28T05:37:41.341Z,13.80
2018-09-28T05:40:16.388Z,13.80
2018-09-28T05:42:51.106Z,13.80
2018-09-28T05:45:26.159Z,13.90
2018-09-28T05:48:00.695Z,14.00
2018-09-28T05:50:35.860Z,14.00
2018-09-28T05:55:51.769Z,14.10
2018-09-28T05:58:32.204Z,14.20
2018-09-28T06:03:58.952Z,14.30
2018-09-28T06:06:33.251Z,14.50
2018-09-28T06:09:09.211Z,14.60
2018-09-28T06:11:44.563Z,14.80
2018-09-28T06:14:19.727Z,15.00
2018-09-28T06:16:54.060Z,15.10
2018-09-28T06:19:29.379Z,15.20
2018-09-28T06:22:03.720Z,15.40
2018-09-28T06:24:38.223Z,15.60
2018-09-28T06:27:15.221Z,15.70
2018-09-28T06:29:50.740Z,15.90
2018-09-28T06:32:25.875Z,16.00
2018-09-28T06:35:01.004Z,16.20
2018-09-28T06:37:35.712Z,16.30
2018-09-28T06:40:10.683Z,16.50
2018-09-28T06:42:44.991Z,16.70
2018-09-28T06:45:20.143Z,16.90
2018-09-28T06:47:55.322Z,17.10
2018-09-28T06:50:31.654Z,17.20
2018-09-28T06:53:06.851Z,17.40
2018-09-28T06:55:41.915Z,17.60
2018-09-28T06:58:17.166Z,17.80
2018-09-28T07:00:59.116Z,18.00
2018-09-28T07:03:34.177Z,18.20
2018-09-28T07:06:08.703Z,18.40
2018-09-28T07:08:43.127Z,18.60
2018-09-28T07:11:17.742Z,18.80
2018-09-28T07:13:52.856Z,19.00
2018-09-28T07:16:28.282Z,19.20
2018-09-28T07:19:03.416Z,19.40
2018-09-28T07:21:37.991Z,19.60
2018-09-28T07:24:12.378Z,19.70
2018-09-28T07:26:47.472Z,19.90
2018-09-28T07:29:22.831Z,20.10
2018-09-28T07:31:58.033Z,20.30
2018-09-28T07:34:32.442Z,20.50
2018-09-28T07:37:06.990Z,20.50
2018-09-28T07:39:42.142Z,20.60
2018-09-28T07:42:16.600Z,20.80
2018-09-28T07:44:51.791Z,21.00
2018-09-28T07:47:26.201Z,21.00
2018-09-28T07:50:01.559Z,21.10
2018-09-28T07:52:37.006Z,21.30
2018-09-28T07:55:12.554Z,21.50
2018-09-28T07:57:47.895Z,21.40
2018-09-28T08:00:22.432Z,21.60
2018-09-28T08:02:57.779Z,21.70
2018-09-28T08:05:32.848Z,21.80
2018-09-28T08:08:07.321Z,21.60
2018-09-28T08:10:41.780Z,21.70
2018-09-28T08:13:16.983Z,21.50
2018-09-28T08:15:51.710Z,21.80
2018-09-28T08:18:27.003Z,21.90
2018-09-28T08:21:01.587Z,21.70
2018-09-28T08:23:36.919Z,21.40
2018-09-28T08:26:11.435Z,21.40
2018-09-28T08:28:46.576Z,21.50
2018-09-28T08:31:22.032Z,21.90
2018-09-28T08:33:56.860Z,22.20
2018-09-28T08:36:31.284Z,22.40
2018-09-28T08:39:08.204Z,22.40
2018-09-28T08:41:42.748Z,22.60
2018-09-28T08:44:17.927Z,22.90
2018-09-28T08:46:52.206Z,23.10
2018-09-28T08:49:27.712Z,23.10
2018-09-28T08:52:03.660Z,22.90
2018-09-28T08:54:38.957Z,23.00
2018-09-28T08:57:18.012Z,23.00
2018-09-28T08:59:52.252Z,23.10
2018-09-28T09:02:26.522Z,23.30
2018-09-28T09:05:00.962Z,23.40
2018-09-28T09:07:35.256Z,23.30
2018-09-28T09:10:09.908Z,23.30
2018-09-28T09:12:45.775Z,23.40
2018-09-28T09:15:20.229Z,23.50
2018-09-28T09:18:01.066Z,23.50
2018-09-28T09:20:36.315Z,23.40
2018-09-28T09:23:10.795Z,23.40
2018-09-28T09:25:45.192Z,23.40
2018-09-28T09:28:20.051Z,23.30
2018-09-28T09:30:55.524Z,23.30
2018-09-28T09:33:30.082Z,22.90
2018-09-28T09:36:04.555Z,22.40
2018-09-28T09:38:38.988Z,22.40
2018-09-28T09:41:14.206Z,22.30
2018-09-28T09:43:49.236Z,22.30
2018-09-28T09:46:24.854Z,22.30
2018-09-28T09:49:00.144Z,22.50
2018-09-28T09:51:35.609Z,22.50
2018-09-28T09:54:10.694Z,22.60
2018-09-28T09:56:45.169Z,22.80
2018-09-28T09:59:20.229Z,22.80
2018-09-28T10:02:00.369Z,22.70
2018-09-28T10:04:34.876Z,22.90
2018-09-28T10:07:09.180Z,23.00
2018-09-28T10:09:43.473Z,23.00
2018-09-28T10:12:18.706Z,23.00
2018-09-28T10:14:53.162Z,23.00
2018-09-28T10:17:28.020Z,22.70
2018-09-28T10:20:03.236Z,22.90
2018-09-28T10:22:37.699Z,23.00
2018-09-28T10:25:13.120Z,23.00
2018-09-28T10:27:47.470Z,23.10
2018-09-28T10:30:22.843Z,22.70
2018-09-28T10:32:58.028Z,22.90
2018-09-28T10:35:32.655Z,23.10
2018-09-28T10:38:06.997Z,23.10
2018-09-28T10:40:42.162Z,23.20
2018-09-28T10:43:16.514Z,23.20
2018-09-28T10:45:51.821Z,23.40
2018-09-28T10:48:26.820Z,23.20
2018-09-28T10:51:02.000Z,22.40
2018-09-28T10:53:36.900Z,21.70
2018-09-28T10:56:11.856Z,21.00
2018-09-28T10:58:47.408Z,21.60
2018-09-28T11:01:21.771Z,22.20
2018-09-28T11:03:56.240Z,22.80
2018-09-28T11:06:30.736Z,23.20
2018-09-28T11:09:08.299Z,23.40
2018-09-28T11:11:42.936Z,24.60
2018-09-28T11:14:17.907Z,25.60
2018-09-28T11:16:53.157Z,24.70
2018-09-28T11:19:28.303Z,23.50
2018-09-28T11:22:03.540Z,23.00
2018-09-28T11:24:38.434Z,23.70
2018-09-28T11:27:13.411Z,24.10
2018-09-28T11:29:48.924Z,24.50
2018-09-28T11:32:23.793Z,24.00
2018-09-28T11:34:58.224Z,23.40
2018-09-28T11:37:32.706Z,23.30
2018-09-28T11:40:07.880Z,23.70
2018-09-28T11:42:42.383Z,24.50
2018-09-28T11:45:17.239Z,25.00
2018-09-28T11:47:51.625Z,25.30
2018-09-28T11:50:26.716Z,26.30
2018-09-28T11:53:01.740Z,26.60
2018-09-28T11:55:36.811Z,26.40
2018-09-28T11:58:11.983Z,25.10
2018-09-28T12:00:47.807Z,24.20
2018-09-28T12:03:22.435Z,24.30
2018-09-28T12:05:56.924Z,25.20
2018-09-28T12:08:31.408Z,25.30
2018-09-28T12:11:06.842Z,25.40
2018-09-28T12:13:41.936Z,24.50
2018-09-28T12:16:16.308Z,24.10
2018-09-28T12:18:51.826Z,24.80
2018-09-28T12:21:27.082Z,25.40
2018-09-28T12:24:01.581Z,25.50
2018-09-28T12:26:36.790Z,25.70
2018-09-28T12:29:12.189Z,25.20
2018-09-28T12:31:47.735Z,24.90
2018-09-28T12:34:22.359Z,24.80
2018-09-28T12:36:56.895Z,25.00
2018-09-28T12:39:32.028Z,25.20
2018-09-28T12:42:06.641Z,25.00
2018-09-28T12:44:42.015Z,24.90
2018-09-28T12:47:16.507Z,25.10
2018-09-28T12:49:51.609Z,24.70
2018-09-28T12:52:26.878Z,24.50
2018-09-28T12:55:02.132Z,24.80
2018-09-28T12:57:37.368Z,25.00
2018-09-28T13:00:12.898Z,25.00
2018-09-28T13:02:47.520Z,25.10
2018-09-28T13:05:21.979Z,25.00
2018-09-28T13:07:56.329Z,24.80
2018-09-28T13:10:35.049Z,24.90
2018-09-28T13:13:10.121Z,25.00
2018-09-28T13:15:44.559Z,24.90
2018-09-28T13:18:19.928Z,25.00
2018-09-28T13:20:54.958Z,25.30
2018-09-28T13:23:29.572Z,25.30
2018-09-28T13:26:03.831Z,25.50
2018-09-28T13:28:39.232Z,24.40
2018-09-28T13:31:14.678Z,24.70
2018-09-28T13:33:48.984Z,25.50
2018-09-28T13:36:23.773Z,26.00
2018-09-28T13:39:06.383Z,26.40
2018-09-28T13:41:40.620Z,26.70
2018-09-28T13:44:17.217Z,27.00
2018-09-28T13:46:51.556Z,27.20
2018-09-28T13:49:26.899Z,27.30
2018-09-28T13:52:02.090Z,27.50
2018-09-28T13:54:37.816Z,27.70
2018-09-28T13:57:18.885Z,27.90
2018-09-28T13:59:53.766Z,27.60
2018-09-28T14:02:29.008Z,27.10
2018-09-28T14:05:03.504Z,27.20
2018-09-28T14:07:37.904Z,27.20
2018-09-28T14:10:13.452Z,27.20
2018-09-28T14:12:48.773Z,27.20
2018-09-28T14:15:23.722Z,27.20
2018-09-28T14:17:59.188Z,27.20
2018-09-28T14:20:33.656Z,27.20
2018-09-28T14:23:08.044Z,26.70
2018-09-28T14:25:42.468Z,26.90
2018-09-28T14:28:17.588Z,26.70
2018-09-28T14:30:57.804Z,26.80
2018-09-28T14:33:33.900Z,26.70
2018-09-28T14:36:08.259Z,26.60
2018-09-28T14:38:43.399Z,26.60
2018-09-28T14:41:18.347Z,26.60
2018-09-28T14:43:52.676Z,26.50
2018-09-28T14:46:27.605Z,26.70
2018-09-28T14:49:02.901Z,26.60
2018-09-28T14:51:38.312Z,26.70
2018-09-28T14:54:14.054Z,26.90
2018-09-28T14:56:49.111Z,27.00
2018-09-28T14:59:24.128Z,27.00
2018-09-28T15:02:07.085Z,26.50
2018-09-28T15:04:41.832Z,26.60
2018-09-28T15:07:16.803Z,26.70
2018-09-28T15:09:51.363Z,26.50
2018-09-28T15:12:26.548Z,26.60
2018-09-28T15:15:01.537Z,26.80
2018-09-28T15:17:35.968Z,26.90
2018-09-28T15:20:11.010Z,27.40
2018-09-28T15:22:45.510Z,27.80
2018-09-28T15:25:19.922Z,28.00
2018-09-28T15:28:03.217Z,28.10
2018-09-28T15:30:37.730Z,28.50
2018-09-28T15:33:12.582Z,28.60
2018-09-28T15:35:47.029Z,28.50
2018-09-28T15:38:21.495Z,28.80
2018-09-28T15:40:56.500Z,29.20
2018-09-28T15:43:31.791Z,29.40
2018-09-28T15:46:07.484Z,29.20
2018-09-28T15:48:43.230Z,28.90
2018-09-28T15:51:18.167Z,28.40
2018-09-28T15:53:53.507Z,27.90
2018-09-28T15:56:27.926Z,27.70
2018-09-28T15:59:02.988Z,27.30
2018-09-28T16:01:37.339Z,27.10
2018-09-28T16:04:13.038Z,26.90
2018-09-28T16:06:47.879Z,26.70
2018-09-28T16:09:22.713Z,26.40
2018-09-28T16:11:58.191Z,26.10
2018-09-28T16:14:33.347Z,25.90
2018-09-28T16:17:08.618Z,25.40
2018-09-28T16:19:44.267Z,25.20
2018-09-28T16:22:18.907Z,25.00
2018-09-28T16:24:53.435Z,24.70
2018-09-28T16:27:27.829Z,24.50
2018-09-28T16:30:03.383Z,24.50
2018-09-28T16:32:39.047Z,24.30
2018-09-28T16:35:13.660Z,24.20
2018-09-28T16:37:48.054Z,24.00
2018-09-28T16:40:23.244Z,23.90
2018-09-28T16:42:57.544Z,23.80
2018-09-28T16:45:32.994Z,23.50
2018-09-28T16:48:08.468Z,23.20
2018-09-28T16:50:43.639Z,23.10
2018-09-28T16:53:24.563Z,23.00
2018-09-28T16:55:58.879Z,22.70
2018-09-28T16:58:33.981Z,22.80
2018-09-28T17:01:09.289Z,22.60
2018-09-28T17:03:44.904Z,22.60
2018-09-28T17:06:19.839Z,22.50
2018-09-28T17:08:55.569Z,22.50
2018-09-28T17:11:30.199Z,22.50
2018-09-28T17:14:05.276Z,22.60
2018-09-28T17:16:39.887Z,22.50
2018-09-28T17:19:14.752Z,22.60
2018-09-28T17:21:49.332Z,22.60
2018-09-28T17:24:23.854Z,22.60
2018-09-28T17:26:58.567Z,22.50
2018-09-28T17:29:34.063Z,22.50
2018-09-28T17:32:09.882Z,22.30
2018-09-28T17:34:44.192Z,22.20
2018-09-28T17:37:18.754Z,22.20
2018-09-28T17:39:53.793Z,22.00
2018-09-28T17:42:28.360Z,22.00
2018-09-28T17:45:03.832Z,21.90
2018-09-28T17:47:39.787Z,21.70
2018-09-28T17:50:15.356Z,21.50
2018-09-28T17:52:50.433Z,21.40
2018-09-28T17:55:30.184Z,21.40
2018-09-28T17:58:04.852Z,21.30
2018-09-28T18:00:47.475Z,21.20
2018-09-28T18:03:21.851Z,21.20
2018-09-28T18:05:57.667Z,21.20
2018-09-28T18:08:32.214Z,21.10
2018-09-28T18:11:06.988Z,21.00
2018-09-28T18:13:42.197Z,21.00
2018-09-28T18:16:16.626Z,20.90
2018-09-28T18:18:52.099Z,20.70
2018-09-28T18:21:26.632Z,20.60
2018-09-28T18:24:01.219Z,20.60
2018-09-28T18:26:35.847Z,20.50
2018-09-28T18:29:11.143Z,20.50
2018-09-28T18:31:46.263Z,20.50
2018-09-28T18:34:20.814Z,20.30
2018-09-28T18:36:56.130Z,20.00
2018-09-28T18:39:31.623Z,20.00
2018-09-28T18:42:06.353Z,20.00
2018-09-28T18:44:41.980Z,20.00
2018-09-28T18:47:17.136Z,20.10
2018-09-28T18:52:31.166Z,20.00
2018-09-28T18:55:06.701Z,20.10
2018-09-28T18:57:42.351Z,20.00
2018-09-28T19:00:18.082Z,20.00
2018-09-28T19:02:52.667Z,20.00
2018-09-28T19:05:27.876Z,20.00
2018-09-28T19:08:03.282Z,19.90
2018-09-28T19:10:37.672Z,19.90
2018-09-28T19:13:12.959Z,19.90
2018-09-28T19:15:47.544Z,19.80
2018-09-28T19:18:23.392Z,19.70
2018-09-28T19:20:57.728Z,19.60
2018-09-28T19:23:32.522Z,19.60
2018-09-28T19:26:06.932Z,19.60
2018-09-28T19:28:43.492Z,19.60
2018-09-28T19:31:20.070Z,19.50
2018-09-28T19:33:54.742Z,19.60
2018-09-28T19:36:29.278Z,19.30
2018-09-28T19:39:05.191Z,19.30
2018-09-28T19:41:41.869Z,19.30
2018-09-28T19:44:18.311Z,19.40
2018-09-28T19:46:53.613Z,19.30
2018-09-28T19:49:30.152Z,19.30
2018-09-28T19:52:05.782Z,19.10
2018-09-28T19:54:41.936Z,19.00
2018-09-28T19:57:16.441Z,18.90
2018-09-28T19:59:51.039Z,18.80
2018-09-28T20:02:27.270Z,18.90
2018-09-28T20:05:02.771Z,18.90
2018-09-28T20:07:37.267Z,18.90
2018-09-28T20:10:13.377Z,18.80
2018-09-28T20:12:48.728Z,18.80
2018-09-28T20:15:23.068Z,18.90
2018-09-28T20:17:58.591Z,18.90
2018-09-28T20:20:33.387Z,18.90
2018-09-28T20:23:09.231Z,18.90
2018-09-28T20:25:43.923Z,18.80
2018-09-28T20:28:19.311Z,18.90
2018-09-28T20:31:06.356Z,18.90
2018-09-28T20:33:40.789Z,18.90
2018-09-28T20:36:15.168Z,18.90
2018-09-28T20:38:50.044Z,18.80
2018-09-28T20:41:25.226Z,18.80
2018-09-28T20:43:59.576Z,18.80
2018-09-28T20:46:35.619Z,18.90
2018-09-28T20:49:10.847Z,18.90
2018-09-28T20:51:45.775Z,18.80
2018-09-28T20:54:20.833Z,18.90
2018-09-28T20:56:55.252Z,19.00
2018-09-28T20:59:30.675Z,19.00
2018-09-28T21:02:05.660Z,19.00
2018-09-28T21:04:40.906Z,18.90
2018-09-28T21:07:15.419Z,18.60
2018-09-28T21:09:51.004Z,18.60
2018-09-28T21:12:26.734Z,18.70
2018-09-28T21:15:01.266Z,18.60
2018-09-28T21:17:35.620Z,18.50
2018-09-28T21:20:10.695Z,18.40
2018-09-28T21:22:51.079Z,18.40
2018-09-28T21:25:25.591Z,18.50
2018-09-28T21:28:04.797Z,18.40
2018-09-28T21:30:39.300Z,18.10
2018-09-28T21:33:14.751Z,18.20
2018-09-28T21:35:49.301Z,18.20
2018-09-28T21:38:23.851Z,18.20
2018-09-28T21:40:58.883Z,18.20
2018-09-28T21:43:33.739Z,18.20
2018-09-28T21:46:08.652Z,18.20
2018-09-28T21:48:44.011Z,18.20
2018-09-28T21:51:19.050Z,18.20
2018-09-28T21:53:55.048Z,18.20
2018-09-28T21:59:10.787Z,18.20
2018-09-28T22:01:45.660Z,18.10
2018-09-28T22:04:20.152Z,18.20
2018-09-28T22:06:54.815Z,18.20
2018-09-28T22:09:29.292Z,18.10
2018-09-28T22:12:11.827Z,18.10
2018-09-28T22:14:46.313Z,18.10
2018-09-28T22:17:20.674Z,18.10
2018-09-28T22:19:56.006Z,18.10
2018-09-28T22:22:30.512Z,18.10
2018-09-28T22:25:05.483Z,18.10
2018-09-28T22:27:39.857Z,18.10
2018-09-28T22:30:14.933Z,18.10
2018-09-28T22:32:50.088Z,17.90
2018-09-28T22:35:24.400Z,18.00
2018-09-28T22:37:58.752Z,17.90
2018-09-28T22:40:33.760Z,17.90
2018-09-28T22:43:08.185Z,18.00
2018-09-28T22:45:43.187Z,18.00
2018-09-28T22:48:18.512Z,17.90
2018-09-28T22:50:54.272Z,17.90
2018-09-28T22:53:35.135Z,17.90
2018-09-28T22:56:09.553Z,17.90
2018-09-28T22:58:44.038Z,17.90
2018-09-28T23:01:19.000Z,17.90
2018-09-28T23:03:53.876Z,17.80
2018-09-28T23:06:28.315Z,17.80
2018-09-28T23:09:02.661Z,17.80
2018-09-28T23:11:38.062Z,17.80
2018-09-28T23:14:12.943Z,17.70
2018-09-28T23:16:48.099Z,17.70
2018-09-28T23:19:23.187Z,17.70
2018-09-28T23:21:57.659Z,17.60
2018-09-28T23:24:32.824Z,17.50
2018-09-28T23:27:07.253Z,17.50
2018-09-28T23:29:42.389Z,17.40
2018-09-28T23:32:17.585Z,17.30
2018-09-28T23:34:52.073Z,17.30
2018-09-28T23:37:27.163Z,17.20
2018-09-28T23:40:02.506Z,17.20
2018-09-28T23:42:36.908Z,17.20
2018-09-28T23:45:11.835Z,17.20
2018-09-28T23:47:46.439Z,17.20
2018-09-28T23:50:21.674Z,17.20
2018-09-28T23:52:56.660Z,17.20
2018-09-28T23:55:31.615Z,17.20
2018-09-28T23:58:06.858Z,17.10
